createdAt,value
2019-05-25T00:08:10.905Z,18.20
2019-05-25T00:18:16.955Z,18.30
2019-05-25T00:28:22.289Z,18.10
2019-05-25T00:38:29.143Z,18.00
2019-05-25T00:48:37.412Z,18.10
2019-05-25T00:58:44.658Z,18.10
2019-05-25T01:08:51.382Z,18.20
2019-05-25T01:18:57.679Z,18.10
2019-05-25T01:29:03.842Z,18.00
2019-05-25T01:39:09.331Z,17.80
2019-05-25T01:49:17.200Z,17.90
2019-05-25T01:59:22.672Z,17.80
2019-05-25T02:09:28.400Z,17.80
2019-05-25T02:19:33.896Z,17.80
2019-05-25T02:29:39.182Z,17.70
2019-05-25T02:39:44.699Z,17.60
2019-05-25T02:49:50.554Z,17.70
2019-05-25T02:59:55.887Z,17.60
2019-05-25T03:10:01.769Z,17.60
2019-05-25T03:20:07.872Z,17.60
2019-05-25T03:30:16.349Z,17.70
2019-05-25T03:40:21.759Z,17.60
2019-05-25T03:50:27.758Z,17.70
2019-05-25T04:00:36.479Z,17.80
2019-05-25T04:10:41.723Z,17.70
2019-05-25T04:20:46.978Z,17.60
2019-05-25T04:30:52.559Z,17.50
2019-05-25T04:40:57.811Z,17.50
2019-05-25T04:51:03.343Z,17.40
2019-05-25T05:01:08.570Z,17.30
2019-05-25T05:11:14.110Z,17.10
2019-05-25T05:21:19.379Z,17.00
2019-05-25T05:31:24.753Z,17.00
2019-05-25T05:41:32.592Z,17.00
2019-05-25T05:51:37.847Z,17.00
2019-05-25T06:01:43.400Z,17.10
2019-05-25T06:11:48.634Z,17.20
2019-05-25T06:21:53.935Z,17.20
2019-05-25T06:31:59.317Z,17.20
2019-05-25T06:42:04.932Z,17.40
2019-05-25T06:52:10.258Z,17.50
2019-05-25T07:02:15.570Z,17.70
2019-05-25T07:12:20.946Z,17.80
2019-05-25T07:22:26.238Z,18.00
2019-05-25T07:32:31.615Z,18.10
2019-05-25T07:42:37.024Z,18.30
2019-05-25T07:52:42.591Z,18.60
2019-05-25T08:02:47.955Z,18.80
2019-05-25T08:12:53.291Z,19.30
2019-05-25T08:22:58.966Z,19.60
2019-05-25T08:33:04.206Z,19.90
2019-05-25T08:43:09.463Z,20.20
2019-05-25T08:53:14.755Z,20.20
2019-05-25T09:03:19.996Z,20.30
2019-05-25T09:13:25.594Z,20.20
2019-05-25T09:23:31.268Z,20.50
2019-05-25T09:33:36.557Z,20.70
2019-05-25T09:43:41.798Z,21.00
2019-05-25T09:53:47.162Z,21.30
2019-05-25T10:03:52.523Z,21.50
2019-05-25T10:13:57.853Z,21.90
2019-05-25T10:24:03.204Z,22.10
2019-05-25T10:34:08.571Z,22.40
2019-05-25T10:44:14.185Z,23.30
2019-05-25T10:54:19.463Z,23.80
2019-05-25T11:04:25.335Z,23.60
2019-05-25T11:14:30.997Z,24.30
2019-05-25T11:24:36.265Z,25.50
2019-05-25T11:34:41.568Z,26.40
2019-05-25T11:44:46.822Z,26.40
2019-05-25T11:54:52.174Z,26.10
2019-05-25T12:04:57.538Z,25.60
2019-05-25T12:15:02.858Z,25.10
2019-05-25T12:25:08.724Z,25.40
2019-05-25T12:35:14.552Z,25.30
2019-05-25T12:45:21.255Z,25.80
2019-05-25T12:55:26.806Z,25.60
2019-05-25T13:05:34.589Z,25.40
2019-05-25T13:15:39.568Z,26.30
2019-05-25T13:25:45.087Z,25.90
2019-05-25T13:35:50.699Z,26.20
2019-05-25T13:45:56.229Z,27.10
2019-05-25T13:56:01.590Z,27.20
2019-05-25T14:06:06.867Z,27.10
2019-05-25T14:16:12.487Z,27.20
2019-05-25T14:26:17.797Z,26.70
2019-05-25T14:36:23.437Z,26.70
2019-05-25T14:46:28.680Z,26.60
2019-05-25T14:56:34.196Z,26.40
2019-05-25T15:06:39.539Z,26.90
2019-05-25T15:16:45.056Z,27.20
2019-05-25T15:26:50.327Z,27.50
2019-05-25T15:36:55.716Z,27.80
2019-05-25T15:47:04.672Z,28.90
2019-05-25T15:57:08.034Z,27.80
2019-05-25T16:07:13.853Z,26.80
2019-05-25T16:17:19.139Z,26.10
2019-05-25T16:27:24.440Z,25.70
2019-05-25T16:37:29.793Z,25.10
2019-05-25T16:47:35.220Z,24.80
2019-05-25T16:57:40.543Z,24.30
2019-05-25T17:07:45.789Z,24.10
2019-05-25T17:17:51.336Z,23.90
2019-05-25T17:27:56.622Z,23.40
2019-05-25T17:38:01.947Z,23.30
2019-05-25T17:48:07.290Z,22.90
2019-05-25T17:58:12.703Z,22.60
2019-05-25T18:08:18.393Z,22.30
2019-05-25T18:18:23.743Z,22.10
2019-05-25T18:28:28.986Z,21.70
2019-05-25T18:38:34.221Z,21.30
2019-05-25T18:48:39.518Z,20.90
2019-05-25T18:58:45.352Z,20.50
2019-05-25T19:08:50.604Z,20.20
2019-05-25T19:18:55.923Z,20.00
2019-05-25T19:29:04.734Z,19.70
2019-05-25T19:39:08.822Z,19.50
2019-05-25T19:49:14.399Z,19.30
2019-05-25T19:59:19.716Z,19.00
2019-05-25T20:09:25.191Z,18.70
2019-05-25T20:19:30.539Z,18.40
2019-05-25T20:29:36.101Z,18.30
2019-05-25T20:39:41.341Z,18.00
2019-05-25T20:49:47.112Z,17.80
2019-05-25T20:59:52.369Z,17.60
2019-05-25T21:09:57.604Z,17.50
2019-05-25T21:20:02.945Z,17.40
2019-05-25T21:30:09.283Z,17.50
2019-05-25T21:40:14.882Z,17.30
2019-05-25T21:50:20.436Z,17.20
2019-05-25T22:00:27.911Z,17.00
2019-05-25T22:10:33.168Z,17.00
2019-05-25T22:20:38.400Z,17.00
2019-05-25T22:30:43.636Z,17.00
2019-05-25T22:40:48.966Z,16.70
2019-05-25T22:50:54.712Z,16.30
2019-05-25T23:00:59.972Z,16.00
2019-05-25T23:11:05.270Z,15.80
2019-05-25T23:21:11.222Z,15.60
2019-05-25T23:31:16.467Z,15.40
2019-05-25T23:41:21.711Z,15.10
2019-05-25T23:51:26.965Z,15.00
